createdAt,value
2018-10-05T00:02:13.831Z,10.43
2018-10-05T00:04:41.869Z,9.60
2018-10-05T00:07:09.921Z,9.53
2018-10-05T00:09:37.969Z,10.43
2018-10-05T00:12:06.010Z,10.50
2018-10-05T00:14:34.085Z,9.70
2018-10-05T00:17:02.154Z,10.63
2018-10-05T00:19:30.257Z,10.83
2018-10-05T00:21:58.313Z,10.20
2018-10-05T00:24:26.379Z,9.43
2018-10-05T00:26:54.427Z,10.77
2018-10-05T00:29:22.491Z,9.70
2018-10-05T00:31:50.548Z,10.93
2018-10-05T00:34:18.565Z,10.07
2018-10-05T00:36:46.706Z,10.40
2018-10-05T00:39:14.935Z,11.13
2018-10-05T00:41:42.986Z,10.07
2018-10-05T00:44:10.996Z,10.43
2018-10-05T00:46:39.018Z,10.57
2018-10-05T00:49:07.071Z,10.20
2018-10-05T00:51:35.090Z,10.53
2018-10-05T00:54:03.130Z,9.43
2018-10-05T00:56:31.205Z,10.60
2018-10-05T00:58:59.277Z,9.83
2018-10-05T01:01:27.338Z,9.40
2018-10-05T01:03:55.405Z,10.43
2018-10-05T01:06:23.451Z,10.37
2018-10-05T01:08:51.511Z,10.93
2018-10-05T01:11:19.564Z,9.90
2018-10-05T01:13:47.638Z,10.27
2018-10-05T01:16:15.658Z,9.87
2018-10-05T01:18:43.742Z,10.70
2018-10-05T01:21:11.791Z,10.27
2018-10-05T01:23:39.835Z,11.47
2018-10-05T01:26:07.890Z,12.77
2018-10-05T01:28:36.068Z,11.47
2018-10-05T01:31:04.099Z,10.60
2018-10-05T01:33:32.136Z,10.23
2018-10-05T01:36:00.165Z,10.57
2018-10-05T01:38:28.235Z,10.13
2018-10-05T01:40:56.281Z,10.87
2018-10-05T01:43:24.352Z,11.50
2018-10-05T01:45:52.374Z,9.90
2018-10-05T01:48:20.453Z,10.23
2018-10-05T01:50:48.464Z,10.63
2018-10-05T01:53:16.509Z,10.70
2018-10-05T01:55:44.517Z,11.90
2018-10-05T01:58:12.589Z,11.83
2018-10-05T02:00:40.638Z,11.80
2018-10-05T02:03:08.729Z,10.63
2018-10-05T02:05:36.815Z,10.43
2018-10-05T02:08:04.897Z,10.10
2018-10-05T02:10:32.930Z,10.93
2018-10-05T02:13:00.961Z,10.60
2018-10-05T02:15:29.026Z,10.47
2018-10-05T02:17:57.085Z,11.93
2018-10-05T02:20:25.215Z,11.80
2018-10-05T02:22:53.239Z,10.93
2018-10-05T02:25:21.319Z,11.73
2018-10-05T02:27:49.383Z,11.33
2018-10-05T02:30:17.445Z,11.00
2018-10-05T02:32:45.514Z,10.83
2018-10-05T02:35:13.550Z,11.40
2018-10-05T02:37:41.571Z,12.97
2018-10-05T02:40:09.604Z,11.20
2018-10-05T02:42:37.713Z,11.23
2018-10-05T02:45:05.725Z,10.50
2018-10-05T02:47:33.793Z,11.93
2018-10-05T02:50:01.850Z,11.90
2018-10-05T02:52:30.014Z,11.20
2018-10-05T02:54:58.049Z,11.10
2018-10-05T02:57:26.095Z,11.20
2018-10-05T02:59:54.180Z,10.47
2018-10-05T03:02:32.527Z,11.70
2018-10-05T03:05:00.574Z,12.07
2018-10-05T03:07:29.562Z,11.10
2018-10-05T03:09:58.188Z,12.07
2018-10-05T03:12:26.337Z,10.77
2018-10-05T03:14:54.405Z,10.37
2018-10-05T03:17:22.466Z,11.97
2018-10-05T03:19:50.614Z,10.90
2018-10-05T03:22:18.610Z,11.77
2018-10-05T03:24:46.710Z,11.80
2018-10-05T03:27:14.736Z,12.03
2018-10-05T03:29:43.050Z,11.47
2018-10-05T03:32:11.363Z,11.57
2018-10-05T03:34:39.461Z,11.57
2018-10-05T03:37:07.506Z,12.23
2018-10-05T03:39:35.542Z,12.70
2018-10-05T03:42:03.569Z,12.90
2018-10-05T03:44:31.613Z,12.03
2018-10-05T03:46:59.681Z,12.57
2018-10-05T03:49:27.766Z,11.57
2018-10-05T03:51:55.810Z,11.70
2018-10-05T03:54:24.741Z,10.63
2018-10-05T03:56:52.812Z,11.60
2018-10-05T03:59:21.095Z,10.13
2018-10-05T04:01:49.190Z,11.97
2018-10-05T04:04:17.234Z,11.17
2018-10-05T04:06:45.262Z,11.83
2018-10-05T04:09:13.293Z,12.57
2018-10-05T04:11:41.414Z,11.50
2018-10-05T04:14:09.450Z,11.53
2018-10-05T04:16:37.485Z,12.70
2018-10-05T04:19:05.585Z,12.10
2018-10-05T04:21:33.597Z,14.23
2018-10-05T04:24:01.698Z,11.93
2018-10-05T04:26:29.872Z,11.90
2018-10-05T04:28:57.942Z,11.93
2018-10-05T04:31:26.079Z,11.27
2018-10-05T04:33:54.106Z,11.03
2018-10-05T04:36:22.158Z,11.57
2018-10-05T04:38:50.195Z,11.70
2018-10-05T04:41:18.280Z,11.70
2018-10-05T04:43:46.238Z,11.50
2018-10-05T04:46:14.284Z,11.37
2018-10-05T04:48:42.359Z,11.33
2018-10-05T04:51:10.443Z,11.50
2018-10-05T04:53:38.479Z,11.13
2018-10-05T04:56:06.573Z,11.53
2018-10-05T04:58:34.621Z,11.80
2018-10-05T05:01:02.649Z,11.80
2018-10-05T05:03:30.726Z,11.77
2018-10-05T05:05:58.779Z,12.23
2018-10-05T05:08:26.885Z,12.77
2018-10-05T05:10:54.934Z,13.60
2018-10-05T05:13:23.034Z,13.90
2018-10-05T05:15:51.078Z,12.07
2018-10-05T05:18:19.111Z,13.37
2018-10-05T05:20:47.192Z,12.23
2018-10-05T05:23:15.233Z,12.00
2018-10-05T05:25:43.342Z,12.97
2018-10-05T05:28:11.365Z,12.40
2018-10-05T05:30:39.462Z,11.60
2018-10-05T05:33:07.488Z,11.50
2018-10-05T05:35:35.535Z,11.67
2018-10-05T05:38:03.570Z,12.20
2018-10-05T05:40:31.773Z,12.30
2018-10-05T05:42:59.809Z,14.07
2018-10-05T05:45:27.877Z,12.30
2018-10-05T05:47:55.953Z,11.80
2018-10-05T05:50:23.997Z,11.77
2018-10-05T05:52:52.281Z,10.53
2018-10-05T05:55:20.309Z,10.73
2018-10-05T05:57:48.425Z,9.63
2018-10-05T06:00:16.570Z,11.07
2018-10-05T06:02:44.640Z,9.40
2018-10-05T06:05:12.713Z,8.90
2018-10-05T06:07:40.761Z,9.00
2018-10-05T06:10:08.810Z,8.80
2018-10-05T06:12:36.846Z,8.23
2018-10-05T06:15:05.166Z,7.90
2018-10-05T06:17:33.194Z,6.90
2018-10-05T06:20:01.345Z,6.30
2018-10-05T06:22:30.595Z,5.70
2018-10-05T06:24:58.433Z,5.73
2018-10-05T06:27:26.529Z,5.40
2018-10-05T06:29:54.499Z,5.60
2018-10-05T06:32:22.611Z,5.95
2018-10-05T06:34:50.656Z,6.10
2018-10-05T06:37:18.722Z,5.90
2018-10-05T06:39:47.666Z,5.60
2018-10-05T06:42:15.790Z,5.83
2018-10-05T06:44:43.757Z,4.77
2018-10-05T06:47:11.830Z,5.03
2018-10-05T06:49:40.049Z,5.60
2018-10-05T06:52:08.101Z,5.27
2018-10-05T06:54:36.196Z,6.37
2018-10-05T06:57:04.336Z,5.50
2018-10-05T06:59:32.414Z,5.57
2018-10-05T07:02:01.607Z,5.50
2018-10-05T07:04:29.546Z,5.50
2018-10-05T07:06:57.613Z,5.23
2018-10-05T07:09:26.755Z,5.60
2018-10-05T07:11:54.850Z,5.03
2018-10-05T07:14:22.911Z,5.37
2018-10-05T07:16:51.012Z,4.87
2018-10-05T07:19:19.054Z,5.40
2018-10-05T07:21:47.160Z,4.50
2018-10-05T07:24:15.377Z,4.70
2018-10-05T07:26:43.706Z,4.87
2018-10-05T07:29:11.762Z,4.87
2018-10-05T07:31:39.838Z,5.27
2018-10-05T07:34:08.939Z,5.57
2018-10-05T07:36:36.990Z,4.90
2018-10-05T07:39:07.107Z,4.60
2018-10-05T07:41:35.166Z,4.83
2018-10-05T07:44:03.202Z,4.70
2018-10-05T07:46:31.321Z,5.03
2018-10-05T07:48:59.350Z,5.67
2018-10-05T07:51:27.412Z,4.43
2018-10-05T07:53:55.446Z,4.20
2018-10-05T07:56:23.514Z,4.10
2018-10-05T07:58:51.575Z,4.70
2018-10-05T08:01:19.602Z,4.00
2018-10-05T08:03:47.710Z,4.67
2018-10-05T08:06:15.921Z,3.80
2018-10-05T08:08:44.073Z,4.63
2018-10-05T08:11:12.205Z,4.50
2018-10-05T08:13:40.280Z,4.33
2018-10-05T08:16:08.398Z,4.23
2018-10-05T08:18:36.529Z,4.30
2018-10-05T08:21:04.604Z,3.80
2018-10-05T08:23:32.622Z,3.67
2018-10-05T08:26:00.833Z,4.03
2018-10-05T08:28:28.893Z,3.80
2018-10-05T08:30:56.979Z,4.20
2018-10-05T08:33:25.022Z,3.53
2018-10-05T08:35:53.166Z,3.60
2018-10-05T08:38:21.250Z,3.67
2018-10-05T08:40:49.269Z,3.30
2018-10-05T08:43:17.291Z,3.80
2018-10-05T08:45:45.338Z,3.73
2018-10-05T08:48:13.369Z,3.57
2018-10-05T08:50:41.430Z,3.23
2018-10-05T08:53:09.489Z,3.83
2018-10-05T08:55:37.557Z,3.87
2018-10-05T08:58:05.626Z,3.20
2018-10-05T09:00:33.907Z,3.80
2018-10-05T09:03:01.895Z,4.00
2018-10-05T09:05:30.016Z,3.37
2018-10-05T09:07:58.114Z,3.27
2018-10-05T09:10:26.253Z,3.73
2018-10-05T09:12:54.323Z,3.60
2018-10-05T09:15:22.360Z,3.30
2018-10-05T09:17:50.475Z,3.50
2018-10-05T09:20:18.555Z,3.50
2018-10-05T09:22:46.697Z,3.27
2018-10-05T09:25:14.778Z,3.40
2018-10-05T09:27:42.928Z,3.63
2018-10-05T09:30:12.172Z,3.20
2018-10-05T09:32:40.270Z,4.00
2018-10-05T09:35:08.304Z,3.37
2018-10-05T09:37:36.720Z,2.93
2018-10-05T09:40:04.658Z,3.67
2018-10-05T09:42:32.744Z,3.50
2018-10-05T09:45:00.903Z,3.47
2018-10-05T09:47:28.887Z,3.40
2018-10-05T09:49:57.068Z,3.70
2018-10-05T09:52:25.544Z,3.83
2018-10-05T09:54:53.509Z,3.50
2018-10-05T09:57:21.571Z,3.03
2018-10-05T09:59:49.705Z,3.73
2018-10-05T10:02:22.903Z,3.63
2018-10-05T10:04:51.245Z,3.50
2018-10-05T10:07:21.312Z,3.70
2018-10-05T10:09:49.416Z,3.10
2018-10-05T10:12:17.557Z,3.97
2018-10-05T10:14:45.600Z,3.17
2018-10-05T10:17:13.671Z,3.63
2018-10-05T10:19:41.779Z,3.57
2018-10-05T10:22:09.829Z,4.23
2018-10-05T10:24:37.878Z,3.20
2018-10-05T10:27:05.943Z,2.97
2018-10-05T10:29:34.194Z,4.67
2018-10-05T10:32:02.215Z,3.70
2018-10-05T10:34:30.293Z,3.90
2018-10-05T10:36:58.330Z,3.57
2018-10-05T10:39:26.477Z,4.43
2018-10-05T10:41:54.559Z,4.23
2018-10-05T10:44:22.787Z,4.50
2018-10-05T10:46:50.833Z,4.00
2018-10-05T10:49:18.876Z,3.10
2018-10-05T10:51:46.986Z,3.50
2018-10-05T10:54:15.041Z,3.60
2018-10-05T10:56:43.210Z,3.80
2018-10-05T10:59:11.394Z,3.30
2018-10-05T11:01:39.615Z,3.83
2018-10-05T11:04:07.886Z,3.13
2018-10-05T11:06:35.910Z,3.10
2018-10-05T11:09:04.829Z,3.13
2018-10-05T11:11:32.911Z,3.47
2018-10-05T11:14:01.054Z,3.53
2018-10-05T11:16:29.195Z,4.70
2018-10-05T11:18:57.263Z,4.03
2018-10-05T11:21:26.270Z,3.70
2018-10-05T11:23:54.317Z,3.67
2018-10-05T11:26:22.339Z,3.77
2018-10-05T11:28:50.364Z,4.27
2018-10-05T11:31:18.595Z,3.37
2018-10-05T11:33:46.650Z,4.10
2018-10-05T11:36:14.779Z,3.27
2018-10-05T11:38:42.026Z,3.40
2018-10-05T11:41:10.148Z,3.30
2018-10-05T11:43:38.259Z,3.83
2018-10-05T11:46:06.313Z,3.77
2018-10-05T11:48:34.389Z,4.07
2018-10-05T11:51:02.493Z,4.17
2018-10-05T11:53:30.570Z,3.97
2018-10-05T11:55:58.772Z,3.73
2018-10-05T11:58:26.958Z,2.87
2018-10-05T12:00:55.018Z,3.00
2018-10-05T12:03:23.176Z,4.07
2018-10-05T12:05:51.142Z,3.57
2018-10-05T12:08:19.330Z,3.53
2018-10-05T12:10:47.408Z,3.73
2018-10-05T12:13:15.457Z,3.73
2018-10-05T12:15:43.590Z,4.10
2018-10-05T12:18:11.817Z,3.17
2018-10-05T12:20:39.925Z,3.93
2018-10-05T12:23:08.077Z,3.30
2018-10-05T12:25:36.184Z,4.10
2018-10-05T12:28:04.230Z,4.07
2018-10-05T12:30:32.297Z,3.10
2018-10-05T12:33:00.377Z,3.23
2018-10-05T12:35:28.434Z,3.33
2018-10-05T12:37:56.499Z,3.73
2018-10-05T12:40:24.550Z,2.93
2018-10-05T12:42:52.654Z,3.00
2018-10-05T12:45:20.718Z,3.20
2018-10-05T12:47:49.819Z,3.20
2018-10-05T12:50:17.994Z,3.93
2018-10-05T12:52:46.048Z,3.17
2018-10-05T12:55:14.094Z,3.37
2018-10-05T12:57:42.158Z,3.13
2018-10-05T13:00:10.198Z,2.87
2018-10-05T13:02:38.297Z,3.03
2018-10-05T13:05:06.442Z,3.20
2018-10-05T13:07:34.539Z,2.80
2018-10-05T13:10:02.644Z,2.63
2018-10-05T13:12:30.718Z,2.93
2018-10-05T13:14:58.913Z,2.43
2018-10-05T13:17:27.010Z,2.37
2018-10-05T13:19:55.053Z,3.40
2018-10-05T13:22:23.266Z,3.07
2018-10-05T13:24:51.608Z,2.70
2018-10-05T13:27:19.631Z,2.80
2018-10-05T13:29:47.892Z,2.00
2018-10-05T13:32:15.970Z,2.00
2018-10-05T13:34:44.091Z,2.60
2018-10-05T13:37:12.210Z,2.20
2018-10-05T13:39:40.201Z,2.87
2018-10-05T13:42:08.386Z,2.83
2018-10-05T13:44:36.452Z,2.63
2018-10-05T13:47:04.677Z,2.63
2018-10-05T13:49:32.786Z,3.03
2018-10-05T13:52:00.914Z,3.53
2018-10-05T13:54:29.026Z,2.57
2018-10-05T13:56:57.077Z,2.07
2018-10-05T13:59:25.103Z,2.40
2018-10-05T14:01:53.229Z,2.50
2018-10-05T14:04:21.306Z,2.47
2018-10-05T14:06:49.366Z,2.27
2018-10-05T14:09:17.427Z,2.63
2018-10-05T14:11:45.572Z,2.10
2018-10-05T14:14:13.629Z,3.40
2018-10-05T14:16:41.750Z,2.40
2018-10-05T14:19:10.877Z,2.73
2018-10-05T14:21:38.944Z,2.40
2018-10-05T14:24:06.998Z,3.33
2018-10-05T14:26:35.014Z,2.63
2018-10-05T14:29:03.042Z,2.97
2018-10-05T14:31:31.189Z,2.40
2018-10-05T14:33:59.293Z,2.67
2018-10-05T14:36:27.328Z,2.53
2018-10-05T14:38:55.400Z,2.63
2018-10-05T14:41:23.509Z,2.53
2018-10-05T14:43:51.571Z,2.40
2018-10-05T14:46:19.646Z,2.83
2018-10-05T14:48:47.760Z,2.10
2018-10-05T14:51:15.798Z,2.70
2018-10-05T14:53:43.830Z,2.60
2018-10-05T14:56:11.982Z,2.37
2018-10-05T14:58:40.071Z,2.57
2018-10-05T15:01:08.157Z,2.17
2018-10-05T15:03:36.225Z,2.70
2018-10-05T15:06:04.283Z,2.50
2018-10-05T15:08:32.326Z,2.00
2018-10-05T15:11:00.413Z,3.17
2018-10-05T15:13:28.475Z,9.23
2018-10-05T15:15:56.545Z,3.37
2018-10-05T15:18:24.579Z,2.30
2018-10-05T15:20:52.866Z,2.50
2018-10-05T15:23:21.093Z,2.73
2018-10-05T15:25:49.252Z,2.20
2018-10-05T15:28:17.380Z,2.47
2018-10-05T15:30:45.426Z,2.40
2018-10-05T15:33:13.503Z,2.17
2018-10-05T15:35:41.557Z,3.10
2018-10-05T15:38:09.613Z,2.70
2018-10-05T15:40:37.663Z,2.83
2018-10-05T15:43:05.761Z,2.10
2018-10-05T15:45:33.857Z,2.43
2018-10-05T15:48:01.953Z,2.47
2018-10-05T15:50:30.014Z,2.10
2018-10-05T15:52:58.054Z,2.40
2018-10-05T15:55:26.089Z,2.60
2018-10-05T15:57:54.149Z,2.87
2018-10-05T16:00:22.193Z,2.80
2018-10-05T16:02:50.249Z,2.37
2018-10-05T16:05:18.369Z,2.47
2018-10-05T16:07:46.382Z,2.77
2018-10-05T16:10:14.423Z,2.90
2018-10-05T16:12:42.519Z,3.63
2018-10-05T16:15:10.590Z,3.17
2018-10-05T16:17:38.614Z,4.30
2018-10-05T16:20:06.709Z,4.93
2018-10-05T16:22:34.811Z,3.63
2018-10-05T16:25:02.833Z,4.10
2018-10-05T16:27:30.946Z,3.13
2018-10-05T16:29:58.978Z,2.90
2018-10-05T16:32:27.051Z,3.30
2018-10-05T16:34:55.069Z,3.20
2018-10-05T16:37:23.192Z,3.23
2018-10-05T16:39:51.262Z,3.10
2018-10-05T16:42:19.332Z,3.27
2018-10-05T16:44:47.382Z,4.00
2018-10-05T16:47:15.519Z,3.00
2018-10-05T16:49:43.668Z,4.20
2018-10-05T16:52:11.722Z,4.20
2018-10-05T16:54:39.802Z,4.60
2018-10-05T16:57:07.875Z,3.30
2018-10-05T16:59:36.011Z,3.60
2018-10-05T17:02:04.325Z,4.37
2018-10-05T17:04:33.530Z,3.27
2018-10-05T17:07:01.683Z,3.30
2018-10-05T17:09:29.785Z,3.50
2018-10-05T17:11:57.827Z,3.10
2018-10-05T17:14:26.957Z,3.20
2018-10-05T17:16:54.994Z,4.00
2018-10-05T17:19:23.102Z,4.20
2018-10-05T17:21:51.141Z,5.10
2018-10-05T17:24:19.205Z,4.00
2018-10-05T17:26:47.383Z,6.20
2018-10-05T17:29:15.523Z,7.37
2018-10-05T17:31:43.590Z,7.75
2018-10-05T17:34:11.781Z,7.17
2018-10-05T17:36:39.857Z,6.80
2018-10-05T17:39:09.130Z,7.33
2018-10-05T17:41:37.206Z,5.70
2018-10-05T17:44:05.272Z,5.30
2018-10-05T17:46:33.348Z,6.00
2018-10-05T17:49:01.466Z,5.73
2018-10-05T17:51:29.570Z,4.70
2018-10-05T17:53:57.686Z,4.27
2018-10-05T17:56:25.810Z,4.50
2018-10-05T17:58:54.042Z,3.97
2018-10-05T18:01:22.178Z,4.07
2018-10-05T18:03:50.265Z,4.63
2018-10-05T18:06:18.309Z,4.80
2018-10-05T18:08:46.378Z,4.60
2018-10-05T18:11:14.568Z,5.00
2018-10-05T18:13:42.670Z,4.53
2018-10-05T18:16:10.742Z,4.80
2018-10-05T18:18:38.810Z,3.80
2018-10-05T18:21:06.852Z,4.30
2018-10-05T18:23:34.979Z,4.40
2018-10-05T18:26:03.171Z,3.80
2018-10-05T18:28:31.196Z,4.33
2018-10-05T18:30:59.373Z,4.10
2018-10-05T18:33:27.529Z,5.27
2018-10-05T18:35:55.609Z,4.80
2018-10-05T18:38:24.351Z,5.03
2018-10-05T18:40:52.454Z,5.03
2018-10-05T18:43:20.549Z,4.90
2018-10-05T18:45:48.752Z,4.77
2018-10-05T18:48:16.870Z,4.37
2018-10-05T18:50:44.982Z,4.70
2018-10-05T18:53:13.018Z,4.30
2018-10-05T18:55:41.076Z,4.47
2018-10-05T18:58:09.117Z,4.30
2018-10-05T19:00:37.274Z,5.50
2018-10-05T19:03:05.373Z,5.37
2018-10-05T19:05:33.433Z,5.87
2018-10-05T19:08:01.483Z,5.80
2018-10-05T19:10:29.515Z,5.90
2018-10-05T19:12:57.649Z,5.93
2018-10-05T19:15:25.689Z,5.90
2018-10-05T19:17:53.742Z,5.23
2018-10-05T19:20:21.794Z,4.87
2018-10-05T19:22:50.010Z,4.80
2018-10-05T19:25:18.214Z,5.77
2018-10-05T19:27:46.296Z,5.57
2018-10-05T19:30:14.347Z,6.53
2018-10-05T19:32:42.413Z,7.20
2018-10-05T19:35:10.488Z,11.80
2018-10-05T19:37:38.800Z,11.47
2018-10-05T19:40:07.031Z,9.60
2018-10-05T19:42:36.102Z,8.33
2018-10-05T19:45:04.137Z,7.90
2018-10-05T19:48:35.550Z,7.97
2018-10-05T19:51:03.631Z,6.60
2018-10-05T19:53:31.757Z,6.47
2018-10-05T19:55:59.731Z,6.07
2018-10-05T19:58:27.761Z,6.80
2018-10-05T20:00:55.793Z,6.07
2018-10-05T20:03:23.873Z,6.20
2018-10-05T20:05:51.938Z,6.30
2018-10-05T20:08:20.056Z,6.00
2018-10-05T20:10:48.179Z,5.37
2018-10-05T20:13:16.205Z,6.50
2018-10-05T20:15:44.270Z,5.07
2018-10-05T20:18:12.409Z,5.37
2018-10-05T20:20:40.378Z,5.53
2018-10-05T20:23:08.408Z,5.03
2018-10-05T20:25:36.506Z,5.10
2018-10-05T20:28:04.538Z,5.10
2018-10-05T20:30:32.564Z,3.83
2018-10-05T20:33:00.722Z,4.90
2018-10-05T20:35:28.770Z,4.60
2018-10-05T20:37:56.801Z,4.80
2018-10-05T20:40:24.842Z,6.40
2018-10-05T20:42:52.873Z,11.37
2018-10-05T20:45:20.946Z,9.27
2018-10-05T20:47:50.065Z,6.73
2018-10-05T20:50:18.158Z,7.10
2018-10-05T20:52:53.156Z,6.90
2018-10-05T20:55:21.295Z,6.73
2018-10-05T20:57:49.347Z,4.97
2018-10-05T21:00:17.403Z,6.90
2018-10-05T21:02:45.493Z,5.63
2018-10-05T21:05:13.538Z,5.60
2018-10-05T21:07:42.573Z,4.97
2018-10-05T21:10:10.641Z,5.10
2018-10-05T21:12:38.736Z,4.90
2018-10-05T21:15:06.835Z,5.23
2018-10-05T21:17:35.933Z,4.77
2018-10-05T21:20:04.188Z,5.33
2018-10-05T21:22:32.233Z,4.60
2018-10-05T21:25:00.315Z,4.70
2018-10-05T21:27:28.384Z,5.40
2018-10-05T21:29:56.445Z,4.30
2018-10-05T21:32:24.465Z,4.65
2018-10-05T21:34:52.497Z,4.60
2018-10-05T21:37:20.575Z,5.00
2018-10-05T21:39:48.609Z,4.83
2018-10-05T21:42:16.681Z,5.00
2018-10-05T21:44:44.711Z,5.30
2018-10-05T21:47:12.737Z,4.07
2018-10-05T21:49:40.791Z,4.63
2018-10-05T21:52:09.994Z,5.60
2018-10-05T21:54:38.062Z,5.27
2018-10-05T21:57:06.283Z,4.80
2018-10-05T21:59:34.462Z,5.70
2018-10-05T22:02:02.549Z,5.47
2018-10-05T22:04:30.581Z,4.77
2018-10-05T22:06:58.650Z,5.60
2018-10-05T22:09:26.679Z,6.60
2018-10-05T22:11:54.763Z,5.60
2018-10-05T22:14:22.907Z,6.20
2018-10-05T22:16:51.161Z,5.77
2018-10-05T22:19:19.266Z,6.93
2018-10-05T22:21:47.306Z,6.33
2018-10-05T22:24:15.374Z,6.67
2018-10-05T22:26:43.445Z,6.50
2018-10-05T22:29:11.510Z,5.47
2018-10-05T22:31:39.626Z,6.60
2018-10-05T22:34:07.857Z,6.03
2018-10-05T22:36:35.933Z,5.70
2018-10-05T22:39:04.979Z,5.83
2018-10-05T22:41:33.014Z,5.60
2018-10-05T22:44:01.049Z,5.73
2018-10-05T22:46:29.070Z,5.50
2018-10-05T22:48:57.245Z,5.60
2018-10-05T22:51:25.419Z,5.10
2018-10-05T22:53:53.463Z,5.97
2018-10-05T22:56:21.506Z,5.47
2018-10-05T22:58:49.700Z,5.97
2018-10-05T23:01:17.897Z,6.33
2018-10-05T23:03:46.069Z,7.10
2018-10-05T23:06:14.228Z,8.43
2018-10-05T23:08:42.338Z,7.17
2018-10-05T23:11:10.486Z,8.53
2018-10-05T23:13:38.540Z,7.50
2018-10-05T23:16:06.947Z,8.23
2018-10-05T23:18:35.143Z,7.53
2018-10-05T23:21:03.343Z,7.67
2018-10-05T23:23:31.570Z,7.60
2018-10-05T23:26:00.631Z,7.00
2018-10-05T23:28:28.722Z,8.17
2018-10-05T23:30:56.762Z,7.00
2018-10-05T23:33:24.950Z,6.73
2018-10-05T23:35:53.078Z,7.13
2018-10-05T23:38:21.159Z,6.20
2018-10-05T23:40:49.190Z,6.70
2018-10-05T23:43:17.241Z,6.67
2018-10-05T23:45:45.365Z,6.30
2018-10-05T23:48:13.444Z,6.10
2018-10-05T23:50:41.493Z,5.03
2018-10-05T23:53:09.597Z,5.73
2018-10-05T23:55:37.717Z,6.30
2018-10-05T23:58:06.109Z,5.20
